x

Virginia Beach 64 Nm East Of Virginia Beach, Va (44014) Wave Buoy

11:50 - Sun 26th Mar 2017 All times are EDT. -4 hours from GMT.

  • Sig Wave height 2.0ft
  • Swell Direction
  • Peak Period 8s
  • Average Period 5s
  • Wind
    7mph
  • Sea Temp 50°f
  • Ar Temp 55°f
  • Sea Pressure 1026.1mb
  • Virginia Beach 64 Nm East Of Virginia Beach, Va
  • Virginia Beach 64 Nm East Of Virginia Beach, Va

More Historic Weather Station data

Upgrade to MSW Pro to gain access to the past 30 days of data for over 8000 Wavebouys and Weather Stations around the globe.

Join Pro

Comparision Forecast

View Surf forecast
   
Dom 03/26 11:50 2ft 8s 5s 7
mph
1026.1mb 50f 55f
10:50 2ft 5s 5s 4 7 mph 1026.2mb 51f 55f
9:50 2ft 5s 5s 2 4 mph 1025.8mb 50f 54f
8:50 2.5ft 5s 5s 4
mph
1025.4mb 49f 55f
7:50 2.5ft 5s 5s 4
mph
1025.1mb 49f 54f
6:50 2ft 8s 5s 4 7 mph 1024.7mb 49f 53f
5:50 2.5ft 5s 5s 4 7 mph 1024.1mb 49f 53f
4:50 2.5ft 5s 5s 4 7 mph 1023.5mb 49f 52f
3:50 2.5ft 6s 4s 7 9 mph 1023.4mb 49f 53f
2:50 2.5ft 5s 5s 9 11 mph 1023.8mb 49f 53f
1:50 2.5ft 5s 5s 11
mph
1023.9mb 49f 53f
12:50 2.5ft 5s 5s 11
mph
1024.4mb 49f 54f
Sáb 03/25 11:50 2.5ft 7s 4s 11 13 mph 1024.6mb 49f 53f
10:50 2.5ft 4s 4s 13
mph
1024.4mb 49f 54f
9:50 2.5ft 4s 4s 13
mph
1024.6mb 49f 54f
8:50 2.5ft 8s 4s 13 16 mph 1024.5mb 49f 55f
7:50 2.5ft 5s 4s 13 16 mph 1023.9mb 49f 55f
6:50 2.5ft 5s 4s 11
mph
1023.8mb 49f 54f
5:50 2.5ft 5s 4s 16
mph
1023.6mb 49f 55f
4:50 2.5ft 5s 4s 16 18 mph 1023.4mb 49f 56f
3:50 2.5ft 5s 4s 16 18 mph 1023.7mb 49f 54f
2:50 2.5ft 5s 4s 13
mph
1024.3mb 49f 54f
1:50 2.5ft 5s 4s 13 16 mph 1024.8mb 49f 54f
12:50 2.5ft 5s 4s 16
mph
1025.6mb 49f 53f
11:50 3ft 5s 4s 13 16 mph 1026.3mb 49f 53f
10:50 3ft 5s 4s 11 13 mph 1026.7mb 49f 53f
9:50 3ft 6s 4s 11 13 mph 1026.8mb 49f 53f
8:50 3.5ft 6s 4s 13 18 mph 1026.9mb 50f 53f
7:50 3ft 5s 4s 11 13 mph 1026.8mb 51f 53f
6:50 3ft 5s 4s 13 16 mph 1025.7mb 51f 53f
5:50 3ft 5s 4s 16 18 mph 1025.3mb 51f 53f
4:50 3.5ft 5s 4s 16
mph
1025.5mb 51f 53f
3:50 3.5ft 5s 4s 16 18 mph 1025.8mb 51f 53f
2:50 3.5ft 5s 4s 16 18 mph 1026.3mb 51f 53f
1:50 3.5ft 5s 4s 18 20 mph 1026.4mb 51f 54f
12:50 4ft 4s 4s 18 20 mph 1026.7mb 51f 54f
Sex 03/24 11:50 4.5ft 5s 4s 20 22 mph 1026.4mb 51f 55f
10:50 4ft 4s 4s 22 25 mph 1026.2mb 51f 54f
9:50 4ft 4s 4s 22 25 mph 1026.5mb 51f 54f
8:50 3.5ft 4s 4s 22 25 mph 1026.5mb 51f 55f
7:50 3.5ft 4s 4s 20 25 mph 1026.4mb 51f 55f
6:50 3ft 10s 4s 18 22 mph 1027.2mb 51f 55f
5:50 3ft 11s 4s 18 20 mph 1027.7mb 51f 54f
4:50 3ft 8s 5s 16 18 mph 1028.4mb 51f 54f
3:50 2.5ft 11s 5s 16 18 mph 1029mb 51f 53f
2:50 2.5ft 9s 6s 11 13 mph 1029.9mb 52f 52f
1:50 3ft 10s 7s 11 16 mph 1031.3mb 51f 53f
12:50 3ft 8s 6s 7
mph
1032.8mb 50f 52f
11:50 3ft 9s 7s 7
mph
1033.1mb 49f 51f
10:50 3ft 9s 7s 7
mph
1033.8mb 48f 51f
9:50 3ft 9s 7s 7 9 mph 1034mb 48f 50f
8:50 3ft 9s 6s 7 9 mph 1034.2mb 48f 49f
7:50 3.5ft 8s 6s 9
mph
1034.2mb 48f 48f
6:50 3.5ft 9s 7s 2 4 mph 1034.5mb 48f 46f
5:50 3.5ft 9s 6s 7
mph
1034mb 48f 46f
4:50 3.5ft 7s 6s 7 9 mph 1034.2mb 49f 45f
3:50 4ft 9s 6s 4 7 mph 1034.8mb 49f 45f
2:50 3.5ft 7s 6s 9 11 mph 1035mb 49f 44f
1:50 3.5ft 7s 6s 7 11 mph 1035.7mb 49f 44f
12:50 4ft 7s 6s 7 9 mph 1037mb 48f 43f
Qui 03/23 11:50 4ft 8s 6s 4 7 mph 1036.5mb 48f 42f
10:50 4ft 8s 6s 7 9 mph 1036mb 48f 42f
9:50 4ft 8s 6s 7
mph
1036.3mb 49f 41f
8:50 4.5ft 7s 6s 7 9 mph 1035.7mb 49f 40f
7:50 4.5ft 7s 6s 9 11 mph 1035.4mb 50f 39f
6:50 4.5ft 7s 5s 11 16 mph 1035.4mb 50f 39f
5:50 5ft 7s 5s 9 13 mph 1035.8mb 50f 39f
4:50 5ft 7s 6s 11 16 mph 1035.8mb 50f 38f
3:50 5.5ft 8s 6s 13 16 mph 1035.9mb 50f 38f
2:50 5.5ft 8s 6s 13 18 mph 1035.7mb 50f 38f
1:50 6ft 8s 5s 16 20 mph 1036.2mb 49f 38f
12:50 5ft 8s 5s 20 25 mph 1036.5mb 50f 38f
11:50 7ft 8s 5s 18 22 mph 1036.8mb 50f 37f
10:50 7ft 7s 6s 20 25 mph 1036.5mb 50f 38f
9:50 7.5ft 8s 6s 20 25 mph 1036.3mb 50f 37f
8:50 7ft 8s 6s 20 25 mph 1035.6mb 50f 38f
7:50 8ft 8s 6s 20 27 mph 1034.7mb 50f 38f
6:50 8.5ft 8s 6s 22 29 mph 1033.3mb 50f 39f
5:50 8ft 8s 6s 25 29 mph 1032.5mb 50f 39f
4:50 8.5ft 8s 6s 27 31 mph 1031.2mb 49f 40f
3:50 8.5ft 8s 6s 27 31 mph 1030.7mb 49f 40f
2:50 9ft 8s 6s 22 27 mph 1030.4mb 49f 41f
1:50 10ft 8s 6s 25 29 mph 1030.4mb 49f 42f
12:50 10ft 8s 6s 25 31 mph 1030mb 49f 42f
Qua 03/22 11:50 9.5ft 9s 6s 25 31 mph 1029.3mb 49f 42f
10:50 9ft 8s 6s 27 34 mph 1028.5mb 49f 43f
9:50 8.5ft 8s 6s 27 31 mph 1027.8mb 48f 43f
8:50 8ft 8s 5s 25 29 mph 1027mb 48f 43f
7:50 8ft 8s 6s 22 27 mph 1026.1mb 48f 44f
6:50 9ft 8s 6s 22 27 mph 1024.9mb 50f 44f
5:50 8.5ft 6s 5s 22 27 mph 1023.7mb 51f 45f